Time;durP1;ratioP1;P1;durP2;ratioP2;P2;SDS_P1;SDS_P2;PMS_P1;PMS_P2;Temp;Humidity;BMP_temperature;BMP_pressure;BME280_temperature;BME280_humidity;BME280_pressure;Samples;Min_cycle;Max_cycle;Signal;HPM_P1;HPM_P2
2021/07/02 00:01:40;;;;;;;9.17;6.63;;;17.90;99.90;;;;;;4963193;28;20459;-82
2021/07/02 00:04:10;;;;;;;9.53;7.90;;;17.80;1.00;;;;;;4980978;28;20447;-81
2021/07/02 00:06:38;;;;;;;11.23;7.07;;;17.80;99.90;;;;;;4980653;28;20390;-82
2021/07/02 00:09:06;;;;;;;10.83;9.00;;;17.70;1.00;;;;;;4981231;28;20954;-81
2021/07/02 00:11:35;;;;;;;11.97;8.90;;;17.80;99.90;;;;;;4980975;28;20539;-81
2021/07/02 00:14:04;;;;;;;8.93;7.57;;;17.80;99.90;;;;;;4980963;28;20439;-81
2021/07/02 00:16:33;;;;;;;13.53;7.47;;;17.70;24.80;;;;;;4980170;28;20420;-81
2021/07/02 00:19:02;;;;;;;11.90;8.13;;;17.80;1.00;;;;;;4965555;28;20466;-82
2021/07/02 00:21:31;;;;;;;10.87;8.30;;;17.70;1.00;;;;;;4982344;28;20438;-82
2021/07/02 00:24:00;;;;;;;14.07;7.43;;;17.90;1.00;;;;;;4981697;28;20923;-81
2021/07/02 00:26:28;;;;;;;12.47;10.03;;;17.90;1.00;;;;;;4964191;28;20729;-82
2021/07/02 00:28:56;;;;;;;16.37;11.23;;;17.90;1.00;;;;;;4989592;28;20389;-82
2021/07/02 00:31:24;;;;;;;16.53;11.20;;;17.90;99.90;;;;;;4990748;28;20445;-82
2021/07/02 00:33:53;;;;;;;15.90;10.20;;;18.00;99.90;;;;;;4990734;28;20916;-80
2021/07/02 00:36:21;;;;;;;14.27;10.40;;;17.90;99.90;;;;;;4990571;28;20412;-81
2021/07/02 00:38:51;;;;;;;12.87;9.30;;;18.10;99.90;;;;;;4991042;28;20410;-81
2021/07/02 00:41:20;;;;;;;9.70;8.70;;;18.10;99.90;;;;;;4991198;28;20474;-80
2021/07/02 00:43:50;;;;;;;15.77;9.73;;;18.30;1.00;;;;;;4990322;28;20397;-82
2021/07/02 00:46:18;;;;;;;13.10;9.83;;;18.30;99.90;;;;;;4983828;28;20423;-83
2021/07/02 00:48:47;;;;;;;15.30;11.43;;;18.30;99.90;;;;;;4982742;28;20844;-81
2021/07/02 00:51:16;;;;;;;16.37;12.40;;;18.10;1.00;;;;;;4977558;28;20508;-81
2021/07/02 00:53:46;;;;;;;17.40;13.10;;;18.00;99.90;;;;;;4962728;28;20413;-83
2021/07/02 00:56:19;;;;;;;16.60;10.70;;;17.90;1.00;;;;;;4962597;28;20439;-82
2021/07/02 00:58:50;;;;;;;20.00;12.47;;;17.90;1.00;;;;;;4980262;28;20403;-82
2021/07/02 01:01:22;;;;;;;18.53;12.40;;;17.90;77.80;;;;;;4962137;28;20509;-82
2021/07/02 01:03:55;;;;;;;18.83;11.80;;;17.70;1.00;;;;;;4991028;28;20382;-81
2021/07/02 01:06:28;;;;;;;18.30;13.20;;;17.90;1.00;;;;;;4994102;28;20533;-81
2021/07/02 01:08:58;;;;;;;19.10;10.87;;;17.90;1.00;;;;;;4966798;28;20517;-82
2021/07/02 01:11:29;;;;;;;20.97;14.50;;;17.80;1.00;;;;;;4964683;28;21048;-82
2021/07/02 01:13:58;;;;;;;17.60;11.40;;;17.80;1.00;;;;;;4967495;28;20431;-82
2021/07/02 01:16:26;;;;;;;13.00;10.17;;;17.80;99.90;;;;;;4971063;28;20421;-82
2021/07/02 01:18:55;;;;;;;19.50;12.43;;;17.90;44.70;;;;;;4964381;28;20408;-83
2021/07/02 01:21:26;;;;;;;30.80;15.73;;;17.80;99.90;;;;;;4980181;28;20523;-81
2021/07/02 01:23:56;;;;;;;21.23;14.00;;;17.80;99.90;;;;;;4963315;28;20428;-81
2021/07/02 01:26:26;;;;;;;21.10;14.90;;;17.90;1.00;;;;;;4962312;28;20410;-82
2021/07/02 01:28:54;;;;;;;27.50;14.47;;;17.80;1.00;;;;;;4977536;28;20412;-81
2021/07/02 01:31:23;;;;;;;20.67;15.07;;;17.90;99.90;;;;;;4974284;28;20481;-80
2021/07/02 01:33:51;;;;;;;23.27;15.87;;;18.00;99.90;;;;;;4957428;28;20439;-80
2021/07/02 01:36:21;;;;;;;16.03;11.20;;;17.90;1.00;;;;;;4958287;28;20439;-80
2021/07/02 01:38:52;;;;;;;25.10;16.17;;;17.90;99.90;;;;;;4957468;28;20449;-80
2021/07/02 01:41:23;;;;;;;23.63;14.00;;;18.00;99.90;;;;;;4957953;28;20900;-80
2021/07/02 01:43:53;;;;;;;22.80;14.77;;;18.00;1.00;;;;;;4958049;28;20450;-81
2021/07/02 01:46:22;;;;;;;22.47;15.40;;;18.00;1.00;;;;;;4975984;28;21007;-81
2021/07/02 01:48:51;;;;;;;18.97;14.90;;;18.10;37.60;;;;;;4959343;28;20434;-82
2021/07/02 01:51:23;;;;;;;22.00;15.60;;;17.80;61.50;;;;;;4965050;28;21020;-81
2021/07/02 01:53:53;;;;;;;21.63;14.43;;;18.00;1.00;;;;;;4963605;28;20438;-82
2021/07/02 01:56:22;;;;;;;21.10;15.43;;;18.00;99.90;;;;;;4962964;28;20439;-82
2021/07/02 01:58:54;;;;;;;23.53;14.27;;;18.00;99.90;;;;;;4967696;28;20461;-81
2021/07/02 02:01:31;;;;;;;19.97;14.00;;;18.00;1.00;;;;;;4984245;28;20839;-82
2021/07/02 02:04:05;;;;;;;27.00;19.60;;;17.90;99.90;;;;;;4966203;28;20417;-82
2021/07/02 02:06:33;;;;;;;16.53;13.00;;;17.80;1.00;;;;;;4966528;28;20798;-83
2021/07/02 02:09:04;;;;;;;18.43;14.00;;;17.80;30.30;;;;;;4965939;28;20398;-81
2021/07/02 02:11:34;;;;;;;21.97;13.90;;;17.70;99.90;;;;;;4969153;28;20466;-81
2021/07/02 02:14:03;;;;;;;26.17;15.80;;;17.70;99.90;;;;;;4967717;28;20441;-83
2021/07/02 02:16:31;;;;;;;32.70;15.63;;;17.70;99.90;;;;;;4985040;28;20795;-83
2021/07/02 02:19:06;;;;;;;17.20;11.47;;;17.80;99.90;;;;;;4968697;28;20408;-83
2021/07/02 02:21:36;;;;;;;24.03;15.00;;;17.80;99.90;;;;;;4985682;28;20458;-82
2021/07/02 02:24:06;;;;;;;20.03;14.80;;;17.90;99.90;;;;;;4985476;28;20386;-82
2021/07/02 02:26:34;;;;;;;22.10;14.00;;;17.80;99.90;;;;;;4985246;28;20418;-83
2021/07/02 02:29:04;;;;;;;24.40;16.53;;;17.70;99.90;;;;;;4968640;28;20409;-82
2021/07/02 02:31:32;;;;;;;18.40;14.60;;;17.60;99.90;;;;;;4967777;28;20557;-82
2021/07/02 02:34:08;;;;;;;24.37;16.53;;;17.50;99.90;;;;;;4986858;28;20480;-82
2021/07/02 02:36:37;;;;;;;23.27;14.27;;;17.50;99.90;;;;;;4984957;28;20474;-83
2021/07/02 02:39:08;;;;;;;24.73;16.17;;;17.50;99.90;;;;;;4967174;28;20460;-83
2021/07/02 02:41:36;;;;;;;18.20;13.83;;;17.60;99.90;;;;;;4966516;28;20462;-82
2021/07/02 02:44:05;;;;;;;26.20;13.50;;;17.60;99.90;;;;;;4966157;28;20514;-83
2021/07/02 02:46:35;;;;;;;21.53;13.87;;;17.60;99.90;;;;;;5003988;23;20911;-84
2021/07/02 02:49:04;;;;;;;16.50;14.57;;;17.60;99.90;;;;;;5017405;28;20411;-84
2021/07/02 02:51:32;;;;;;;17.83;14.17;;;17.60;99.90;;;;;;5006684;28;20528;-85
2021/07/02 02:54:01;;;;;;;22.40;13.20;;;17.60;99.90;;;;;;5023788;28;20471;-86
2021/07/02 02:56:30;;;;;;;19.70;12.10;;;17.50;99.90;;;;;;5002191;28;20465;-85
2021/07/02 02:59:01;;;;;;;19.90;11.50;;;17.60;99.90;;;;;;4987738;28;20412;-85
2021/07/02 03:01:30;;;;;;;16.40;11.73;;;17.40;99.90;;;;;;4987349;28;20498;-85
2021/07/02 03:03:58;;;;;;;15.83;12.80;;;17.30;99.90;;;;;;4985709;28;20445;-85
2021/07/02 03:06:27;;;;;;;13.23;11.77;;;17.30;99.90;;;;;;4985839;28;20452;-85
2021/07/02 03:08:55;;;;;;;16.07;12.70;;;17.20;99.90;;;;;;5001326;28;20446;-85
2021/07/02 03:11:24;;;;;;;13.60;11.63;;;17.30;99.90;;;;;;4985516;28;20504;-83
2021/07/02 03:13:54;;;;;;;16.30;12.80;;;17.30;99.90;;;;;;4985312;28;21019;-82
2021/07/02 03:16:23;;;;;;;13.50;11.83;;;17.40;99.90;;;;;;5007506;28;20412;-85
2021/07/02 03:18:52;;;;;;;14.70;11.90;;;17.30;99.90;;;;;;4999357;28;20430;-82
2021/07/02 03:21:21;;;;;;;15.20;10.87;;;17.40;99.90;;;;;;5002770;28;20440;-81
2021/07/02 03:23:49;;;;;;;17.67;12.73;;;17.40;99.90;;;;;;5003052;28;20428;-80
2021/07/02 03:26:17;;;;;;;12.73;9.80;;;17.20;99.90;;;;;;5015990;28;20414;-85
2021/07/02 03:28:49;;;;;;;13.57;11.23;;;17.30;99.90;;;;;;5004994;28;20403;-84
2021/07/02 03:31:19;;;;;;;16.83;12.57;;;17.30;99.90;;;;;;4988292;28;20425;-86
2021/07/02 03:33:49;;;;;;;13.33;11.87;;;17.20;99.90;;;;;;4987697;28;20436;-85
2021/07/02 03:36:17;;;;;;;12.37;11.03;;;17.20;99.90;;;;;;4987854;28;20409;-85
2021/07/02 03:38:47;;;;;;;13.83;10.83;;;17.20;99.90;;;;;;5006532;28;20407;-84
2021/07/02 03:41:15;;;;;;;15.03;12.63;;;17.20;99.90;;;;;;4988080;28;20446;-85
2021/07/02 03:43:44;;;;;;;13.23;9.70;;;17.40;99.90;;;;;;4988581;28;20480;-85
2021/07/02 03:46:14;;;;;;;15.23;10.83;;;17.40;99.90;;;;;;4986675;28;20446;-85
2021/07/02 03:48:44;;;;;;;13.23;9.53;;;17.30;99.90;;;;;;4988104;28;20537;-85
2021/07/02 03:51:12;;;;;;;20.30;11.77;;;17.40;99.90;;;;;;4988015;28;20480;-84
2021/07/02 03:53:41;;;;;;;15.07;10.67;;;17.20;99.90;;;;;;5004484;28;20472;-83
2021/07/02 03:56:09;;;;;;;11.90;10.60;;;17.10;99.90;;;;;;4987950;28;20572;-85
2021/07/02 03:58:38;;;;;;;12.70;10.23;;;17.10;99.90;;;;;;5006509;28;20509;-84
2021/07/02 04:01:06;;;;;;;14.17;8.70;;;17.10;99.90;;;;;;4994602;28;20384;-80
2021/07/02 04:03:54;;;;;;;12.23;10.93;;;17.10;99.90;;;;;;4998298;28;20409;-85
2021/07/02 04:06:23;;;;;;;12.10;8.57;;;17.30;99.90;;;;;;4996228;28;20520;-83
2021/07/02 04:08:53;;;;;;;13.03;9.87;;;17.40;99.90;;;;;;4991577;28;20424;-83
2021/07/02 04:11:21;;;;;;;17.80;10.07;;;17.20;99.90;;;;;;4986631;28;20444;-83
2021/07/02 04:13:49;;;;;;;16.27;11.90;;;17.10;99.90;;;;;;5002398;28;20470;-82
2021/07/02 04:16:17;;;;;;;12.50;9.97;;;17.10;99.90;;;;;;5003088;28;20486;-83
2021/07/02 04:18:45;;;;;;;10.80;9.70;;;17.20;99.90;;;;;;4985030;28;20549;-83
2021/07/02 04:21:15;;;;;;;10.97;8.87;;;17.30;99.90;;;;;;4985627;28;20465;-83
2021/07/02 04:23:43;;;;;;;15.43;11.43;;;17.20;99.90;;;;;;5001163;28;20693;-85
2021/07/02 04:26:11;;;;;;;15.77;10.17;;;17.20;99.90;;;;;;4983242;28;20426;-83
2021/07/02 04:28:39;;;;;;;20.73;13.70;;;17.20;99.90;;;;;;5003053;28;20422;-83
2021/07/02 04:31:08;;;;;;;19.50;12.00;;;17.40;99.90;;;;;;4986584;28;20993;-83
2021/07/02 04:33:36;;;;;;;18.73;12.77;;;17.40;99.90;;;;;;4980935;28;20432;-83
2021/07/02 04:36:05;;;;;;;11.77;10.03;;;17.70;99.90;;;;;;4991210;28;20403;-80
2021/07/02 04:38:34;;;;;;;15.77;9.13;;;17.50;99.90;;;;;;5001805;28;20425;-83
2021/07/02 04:41:02;;;;;;;13.60;10.23;;;17.50;99.90;;;;;;5001760;28;20391;-83
2021/07/02 04:43:30;;;;;;;13.73;9.57;;;17.50;99.90;;;;;;5001641;28;20407;-84
2021/07/02 04:45:59;;;;;;;12.20;9.83;;;17.50;99.90;;;;;;5001598;28;20424;-83
2021/07/02 04:48:42;;;;;;;12.63;9.77;;;17.30;99.90;;;;;;5001611;28;20404;-82
2021/07/02 04:51:10;;;;;;;12.87;9.27;;;17.20;99.90;;;;;;5001585;28;20429;-83
2021/07/02 04:53:40;;;;;;;11.60;9.60;;;17.30;99.90;;;;;;5001659;28;20436;-83
2021/07/02 04:56:11;;;;;;;11.00;9.03;;;17.20;99.90;;;;;;5018418;28;20452;-82
2021/07/02 04:58:40;;;;;;;10.37;9.37;;;17.20;99.90;;;;;;5018296;28;20412;-82
2021/07/02 05:01:08;;;;;;;9.93;8.53;;;17.20;99.90;;;;;;5001258;28;20461;-83
2021/07/02 05:03:36;;;;;;;14.30;8.30;;;17.20;99.90;;;;;;5018264;28;20377;-81
2021/07/02 05:06:06;;;;;;;10.30;8.70;;;17.20;99.90;;;;;;5001184;28;20430;-82
2021/07/02 05:08:35;;;;;;;12.73;9.00;;;17.30;99.90;;;;;;4994012;28;20453;-83
2021/07/02 05:11:04;;;;;;;10.60;8.83;;;17.40;99.90;;;;;;4986743;28;20438;-84
2021/07/02 05:13:32;;;;;;;10.00;8.70;;;17.60;99.90;;;;;;4984676;28;20462;-85
2021/07/02 05:16:01;;;;;;;11.47;8.77;;;17.70;99.90;;;;;;4984444;28;20959;-86
2021/07/02 05:18:29;;;;;;;12.70;8.63;;;17.80;99.90;;;;;;4984354;28;20449;-86
2021/07/02 05:20:57;;;;;;;9.60;8.60;;;17.80;99.90;;;;;;5000583;28;20408;-84
2021/07/02 05:23:25;;;;;;;13.63;9.10;;;17.80;99.90;;;;;;4985238;28;20452;-85
2021/07/02 05:25:53;;;;;;;9.10;8.00;;;18.00;99.90;;;;;;4984875;28;20830;-85
2021/07/02 05:28:23;;;;;;;9.47;7.50;;;18.30;99.90;;;;;;4982985;28;20543;-86
2021/07/02 05:30:51;;;;;;;12.73;7.73;;;18.50;99.90;;;;;;4983084;28;20417;-84
2021/07/02 05:33:19;;;;;;;9.63;8.57;;;18.60;99.90;;;;;;4983924;28;20452;-86
2021/07/02 05:35:48;;;;;;;11.33;8.30;;;18.50;99.90;;;;;;4983088;28;20511;-84
2021/07/02 05:38:16;;;;;;;9.27;7.77;;;18.50;99.90;;;;;;5017051;28;20448;-84
2021/07/02 05:40:44;;;;;;;9.67;7.97;;;18.60;99.90;;;;;;5017493;28;20404;-84
2021/07/02 05:43:12;;;;;;;9.70;7.47;;;18.80;99.90;;;;;;5017843;28;20411;-85
2021/07/02 05:45:43;;;;;;;10.57;7.80;;;18.90;1.00;;;;;;4985392;28;20429;-85
2021/07/02 05:48:16;;;;;;;12.23;9.53;;;19.20;99.90;;;;;;4978426;28;20465;-86
2021/07/02 05:50:45;;;;;;;10.67;9.27;;;19.40;1.00;;;;;;4979177;28;20452;-85
2021/07/02 05:53:13;;;;;;;9.57;7.23;;;19.40;1.60;;;;;;4995641;28;20419;-84
2021/07/02 05:55:41;;;;;;;15.03;7.57;;;19.50;1.00;;;;;;4985716;28;20472;-85
2021/07/02 05:58:10;;;;;;;8.50;6.90;;;19.50;1.00;;;;;;4991128;28;20455;-85
2021/07/02 06:00:38;;;;;;;9.20;8.20;;;19.30;1.00;;;;;;4978134;28;20488;-84
2021/07/02 06:03:07;;;;;;;10.00;8.20;;;19.30;1.00;;;;;;4978671;28;20424;-83
2021/07/02 06:05:36;;;;;;;9.80;8.13;;;19.30;1.00;;;;;;4998981;28;20384;-84
2021/07/02 06:08:05;;;;;;;11.00;9.00;;;19.60;1.00;;;;;;4984377;28;20451;-83
2021/07/02 06:10:33;;;;;;;11.60;8.00;;;19.60;1.00;;;;;;4993782;28;20408;-84
2021/07/02 06:13:02;;;;;;;9.70;7.37;;;19.40;1.00;;;;;;4995762;28;20462;-84
2021/07/02 06:15:32;;;;;;;10.50;7.20;;;19.30;1.00;;;;;;4995913;28;20494;-84
2021/07/02 06:18:08;;;;;;;14.63;7.83;;;19.30;1.00;;;;;;4983997;28;20465;-83
2021/07/02 06:20:37;;;;;;;8.33;7.13;;;19.30;1.00;;;;;;5000646;28;20436;-82
2021/07/02 06:23:06;;;;;;;8.10;6.70;;;19.30;1.00;;;;;;5000509;28;20408;-82
2021/07/02 06:25:34;;;;;;;8.20;7.40;;;19.30;1.00;;;;;;5000435;28;20403;-83
2021/07/02 06:28:02;;;;;;;7.40;6.63;;;19.50;1.00;;;;;;4999369;28;20444;-84
2021/07/02 06:30:30;;;;;;;8.60;7.50;;;19.50;1.00;;;;;;4978737;28;20473;-84
2021/07/02 06:32:58;;;;;;;9.97;7.10;;;19.50;1.00;;;;;;4979328;28;20461;-84
2021/07/02 06:35:28;;;;;;;8.30;7.27;;;19.40;1.00;;;;;;4995666;28;20455;-85
2021/07/02 06:37:56;;;;;;;10.83;7.50;;;19.40;1.00;;;;;;4982992;28;20466;-84
2021/07/02 06:40:24;;;;;;;8.60;7.70;;;19.50;1.00;;;;;;4981622;28;20453;-85
2021/07/02 06:42:52;;;;;;;8.07;6.40;;;19.40;1.00;;;;;;4980898;28;20453;-86
2021/07/02 06:45:21;;;;;;;7.90;7.10;;;19.40;1.00;;;;;;4984765;28;20413;-82
2021/07/02 06:47:55;;;;;;;7.73;7.00;;;19.30;1.00;;;;;;5002201;28;20509;-81
2021/07/02 06:50:24;;;;;;;8.30;6.17;;;19.30;1.00;;;;;;5001680;28;20449;-81
2021/07/02 06:52:53;;;;;;;10.23;7.50;;;19.30;1.00;;;;;;5003433;28;20461;-81
2021/07/02 06:55:22;;;;;;;7.87;6.97;;;19.40;1.00;;;;;;5003229;28;20447;-84
2021/07/02 06:57:50;;;;;;;7.10;5.60;;;19.60;1.00;;;;;;5012797;28;20425;-84
2021/07/02 07:00:19;;;;;;;8.77;5.57;;;19.90;99.90;;;;;;5000266;28;20425;-84
2021/07/02 07:02:48;;;;;;;5.80;5.30;;;20.00;99.90;;;;;;4984795;28;20416;-84
2021/07/02 07:05:16;;;;;;;7.93;5.60;;;19.90;99.90;;;;;;5000925;28;20481;-84
2021/07/02 07:07:45;;;;;;;9.60;5.83;;;19.60;99.90;;;;;;4999989;28;20431;-83
2021/07/02 07:10:16;;;;;;;6.30;5.70;;;19.60;99.90;;;;;;4999893;28;20411;-83
2021/07/02 07:12:44;;;;;;;9.53;6.37;;;19.40;1.00;;;;;;4982509;28;20789;-84
2021/07/02 07:15:13;;;;;;;6.30;5.73;;;19.30;99.90;;;;;;4981110;28;20444;-84
2021/07/02 07:17:41;;;;;;;7.37;5.10;;;19.10;1.00;;;;;;4998334;28;20440;-83
2021/07/02 07:20:11;;;;;;;7.37;6.57;;;19.00;1.00;;;;;;4981675;28;20425;-83
2021/07/02 07:22:40;;;;;;;6.23;5.30;;;18.90;1.00;;;;;;4980461;28;20420;-83
2021/07/02 07:25:10;;;;;;;9.63;7.07;;;18.80;1.00;;;;;;4997274;28;20397;-83
2021/07/02 07:27:39;;;;;;;7.73;5.90;;;18.80;1.00;;;;;;4984609;28;20439;-85
2021/07/02 07:30:08;;;;;;;6.60;6.00;;;19.10;1.00;;;;;;5002693;28;20967;-84
2021/07/02 07:32:37;;;;;;;6.43;5.63;;;19.30;1.00;;;;;;5003294;28;20412;-85
2021/07/02 07:35:16;;;;;;;5.90;5.13;;;19.40;1.00;;;;;;5002832;28;20462;-85
2021/07/02 07:37:47;;;;;;;6.33;5.37;;;19.60;99.90;;;;;;4985599;28;20470;-85
2021/07/02 07:40:15;;;;;;;5.80;5.17;;;19.80;99.90;;;;;;4986066;28;20797;-85
2021/07/02 07:42:44;;;;;;;7.93;5.60;;;19.90;99.90;;;;;;5003243;28;20744;-85
2021/07/02 07:45:13;;;;;;;6.67;5.97;;;20.20;99.90;;;;;;4985894;28;20428;-85
2021/07/02 07:47:41;;;;;;;10.70;6.70;;;20.70;99.90;;;;;;5003486;28;20520;-84
2021/07/02 07:50:13;;;;;;;6.40;5.67;;;21.10;99.90;;;;;;5002518;28;20433;-85
2021/07/02 07:52:46;;;;;;;8.00;5.70;;;21.30;1.00;;;;;;5009564;28;20385;-82
2021/07/02 07:55:16;;;;;;;8.07;4.80;;;21.40;99.90;;;;;;5002242;28;20444;-82
2021/07/02 07:57:47;;;;;;;7.23;6.20;;;21.60;99.90;;;;;;4989339;28;20457;-83
2021/07/02 08:00:16;;;;;;;6.47;5.73;;;21.60;99.90;;;;;;4999139;28;20418;-83
2021/07/02 08:02:45;;;;;;;6.57;4.83;;;21.80;99.90;;;;;;4968687;28;20534;-84
2021/07/02 08:05:16;;;;;;;8.57;6.87;;;21.90;99.90;;;;;;4969212;28;20468;-84
2021/07/02 08:07:45;;;;;;;5.17;3.53;;;22.20;99.90;;;;;;4984356;28;20466;-84
2021/07/02 08:10:16;;;;;;;5.70;4.73;;;22.00;99.90;;;;;;4983329;28;20474;-84
2021/07/02 08:12:45;;;;;;;5.17;4.63;;;21.90;1.00;;;;;;4966677;28;20434;-83
2021/07/02 08:15:16;;;;;;;6.87;4.27;;;21.70;99.90;;;;;;4982166;28;20525;-84
2021/07/02 08:17:45;;;;;;;4.57;3.73;;;21.80;99.90;;;;;;4984142;28;20542;-84
2021/07/02 08:20:13;;;;;;;5.20;4.53;;;22.40;99.90;;;;;;4986344;28;20431;-84
2021/07/02 08:22:42;;;;;;;4.93;4.27;;;22.80;99.90;;;;;;4970030;28;20417;-84
2021/07/02 08:25:12;;;;;;;5.53;4.70;;;22.80;99.90;;;;;;4983888;28;20467;-83
2021/07/02 08:30:28;;;;;;;6.33;5.53;;;21.20;99.90;;;;;;4986839;28;20455;-84
2021/07/02 08:32:56;;;;;;;7.03;6.43;;;21.00;99.90;;;;;;4971416;28;20401;-85
2021/07/02 08:35:24;;;;;;;4.83;4.13;;;21.30;99.90;;;;;;4988657;28;20471;-84
2021/07/02 08:37:57;;;;;;;5.73;4.47;;;21.20;1.00;;;;;;4983418;28;20445;-84
2021/07/02 08:40:26;;;;;;;5.37;4.07;;;21.10;99.90;;;;;;4984216;28;20537;-84
2021/07/02 08:42:54;;;;;;;4.73;4.20;;;21.10;99.90;;;;;;4966106;28;21005;-83
2021/07/02 08:45:22;;;;;;;6.10;4.77;;;21.10;1.00;;;;;;4976524;28;20445;-83
2021/07/02 08:47:53;;;;;;;5.47;4.23;;;21.20;99.90;;;;;;4990549;28;20429;-83
2021/07/02 08:50:22;;;;;;;4.90;4.40;;;21.50;1.00;;;;;;4970005;28;20449;-84
2021/07/02 08:52:51;;;;;;;3.77;3.23;;;21.70;99.90;;;;;;4961518;28;20429;-83
2021/07/02 08:55:20;;;;;;;4.23;3.83;;;21.80;1.00;;;;;;4977443;28;20456;-83
2021/07/02 08:57:48;;;;;;;4.97;4.37;;;21.80;1.00;;;;;;4960633;28;20451;-84
2021/07/02 09:00:17;;;;;;;4.97;4.47;;;21.90;99.90;;;;;;4978535;28;20905;-83
2021/07/02 09:02:46;;;;;;;7.63;6.10;;;21.70;1.00;;;;;;4976999;28;20432;-83
2021/07/02 09:05:35;;;;;;;6.40;4.33;;;21.40;1.00;;;;;;4976650;28;20955;-83
2021/07/02 09:08:13;;;;;;;4.40;4.00;;;21.10;99.90;;;;;;4976538;28;20445;-83
2021/07/02 09:10:45;;;;;;;8.80;3.50;;;21.20;99.90;;;;;;4977910;28;20502;-83
2021/07/02 09:13:13;;;;;;;8.17;5.30;;;21.40;99.90;;;;;;4961683;28;20504;-83
2021/07/02 09:15:44;;;;;;;4.17;3.43;;;21.80;99.90;;;;;;4960081;28;20438;-83
2021/07/02 09:18:12;;;;;;;4.83;4.27;;;21.90;1.00;;;;;;4961176;28;20462;-83
2021/07/02 09:20:44;;;;;;;6.93;4.53;;;22.00;1.00;;;;;;4977828;28;20401;-83
2021/07/02 09:23:17;;;;;;;5.57;4.97;;;22.30;1.00;;;;;;4977194;28;20430;-83
2021/07/02 09:25:51;;;;;;;5.23;4.53;;;22.50;99.90;;;;;;4976762;28;20450;-83
2021/07/02 09:28:27;;;;;;;8.07;5.70;;;22.60;1.00;;;;;;4997010;28;20453;-82
2021/07/02 09:30:55;;;;;;;5.03;4.00;;;22.50;1.00;;;;;;4997844;28;20406;-82
2021/07/02 09:33:25;;;;;;;8.13;4.17;;;22.60;1.00;;;;;;4999792;28;20422;-81
2021/07/02 09:35:58;;;;;;;7.33;4.80;;;22.90;99.90;;;;;;5017414;28;20424;-83
2021/07/02 09:38:33;;;;;;;6.50;5.90;;;23.40;99.90;;;;;;5000680;28;20407;-82
2021/07/02 09:41:01;;;;;;;5.10;4.60;;;23.80;99.90;;;;;;5000712;28;20442;-81
2021/07/02 09:43:30;;;;;;;5.37;4.77;;;23.80;1.00;;;;;;5016630;28;20411;-81
2021/07/02 09:46:02;;;;;;;6.63;5.47;;;23.60;99.90;;;;;;4999906;28;20430;-83
2021/07/02 09:48:32;;;;;;;5.10;4.60;;;23.50;99.90;;;;;;4999523;28;20445;-82
2021/07/02 09:51:03;;;;;;;5.10;4.57;;;23.50;99.90;;;;;;4999137;28;20438;-82
2021/07/02 09:53:35;;;;;;;6.37;5.77;;;23.40;1.00;;;;;;5004132;28;20408;-85
2021/07/02 09:56:05;;;;;;;7.00;6.20;;;23.20;99.90;;;;;;4982589;28;20474;-84
2021/07/02 09:58:37;;;;;;;8.33;7.00;;;23.00;1.00;;;;;;4982572;28;20437;-84
2021/07/02 10:01:06;;;;;;;7.20;5.60;;;22.50;1.00;;;;;;4999581;28;20787;-84
2021/07/02 10:03:37;;;;;;;6.03;4.67;;;22.50;99.90;;;;;;4983577;28;20401;-86
2021/07/02 10:06:10;;;;;;;6.10;4.90;;;23.00;99.90;;;;;;4985904;28;20487;-84
2021/07/02 10:08:39;;;;;;;5.17;4.60;;;23.40;1.00;;;;;;5003203;28;20485;-84
2021/07/02 10:11:10;;;;;;;6.50;4.60;;;23.70;1.00;;;;;;4998579;28;20449;-82
2021/07/02 10:13:40;;;;;;;8.53;5.70;;;23.90;1.00;;;;;;5019899;28;20449;-82
2021/07/02 10:16:09;;;;;;;7.77;5.70;;;23.80;1.00;;;;;;5003844;28;20478;-82
2021/07/02 10:18:39;;;;;;;6.40;5.47;;;23.80;99.90;;;;;;4997236;28;20446;-83
2021/07/02 10:21:10;;;;;;;6.00;4.67;;;24.20;1.00;;;;;;4989245;28;20457;-84
2021/07/02 10:23:43;;;;;;;6.90;5.60;;;24.40;99.90;;;;;;5005332;28;20438;-84
2021/07/02 10:26:13;;;;;;;6.73;6.13;;;24.50;1.00;;;;;;4986975;28;20456;-83
2021/07/02 10:28:43;;;;;;;6.03;5.53;;;24.30;1.00;;;;;;4986933;28;20483;-83
2021/07/02 10:31:12;;;;;;;7.67;6.07;;;24.00;99.90;;;;;;4986924;28;20408;-84
2021/07/02 10:33:44;;;;;;;8.20;5.60;;;24.10;1.00;;;;;;4983753;28;20442;-83
2021/07/02 10:36:15;;;;;;;4.93;4.00;;;24.20;99.90;;;;;;4984256;28;20535;-83
2021/07/02 10:38:45;;;;;;;6.13;5.53;;;24.50;1.00;;;;;;5000679;28;20429;-83
2021/07/02 10:41:16;;;;;;;6.20;5.70;;;24.30;99.90;;;;;;4982675;28;20457;-83
2021/07/02 10:44:04;;;;;;;5.97;5.37;;;24.60;70.80;;;;;;4984564;28;20441;-84
2021/07/02 10:46:33;;;;;;;6.63;5.07;;;24.20;99.90;;;;;;4999948;28;20471;-84
2021/07/02 10:49:03;;;;;;;6.87;5.40;;;23.90;1.00;;;;;;5016533;28;20430;-82
2021/07/02 10:51:59;;;;;;;5.90;4.30;;;23.70;1.00;;;;;;4996354;28;20945;-83
2021/07/02 10:54:34;;;;;;;6.00;5.40;;;24.20;1.00;;;;;;4988754;28;20457;-84
2021/07/02 10:57:14;;;;;;;7.47;4.70;;;24.50;1.00;;;;;;4987387;28;20871;-84
2021/07/02 11:00:11;;;;;;;5.70;4.37;;;24.90;1.00;;;;;;4986365;28;20520;-84
2021/07/02 11:02:41;;;;;;;6.30;4.77;;;25.20;1.00;;;;;;4985901;28;20456;-84
2021/07/02 11:05:27;;;;;;;5.00;4.50;;;24.70;81.50;;;;;;5002849;28;20429;-84
2021/07/02 11:07:57;;;;;;;5.30;4.37;;;24.10;1.00;;;;;;4984432;28;20524;-85
2021/07/02 11:10:25;;;;;;;6.67;4.13;;;23.90;1.00;;;;;;4985268;28;20449;-84
2021/07/02 11:13:01;;;;;;;4.93;4.23;;;24.00;1.00;;;;;;4985230;28;20512;-84
2021/07/02 11:15:30;;;;;;;6.07;5.37;;;24.10;1.00;;;;;;5002245;28;20532;-84
2021/07/02 11:18:22;;;;;;;4.17;3.83;;;24.40;99.90;;;;;;4997148;28;20576;-83
2021/07/02 11:20:50;;;;;;;5.17;4.00;;;24.60;99.90;;;;;;4972864;28;20442;-82
2021/07/02 11:23:24;;;;;;;5.10;4.23;;;24.60;12.00;;;;;;4987568;28;20476;-83
2021/07/02 11:26:06;;;;;;;4.63;4.23;;;24.60;1.00;;;;;;4983569;28;20508;-83
2021/07/02 11:28:55;;;;;;;4.50;4.10;;;24.50;99.90;;;;;;4981392;28;20433;-83
2021/07/02 11:31:37;;;;;;;6.20;4.50;;;24.30;99.90;;;;;;4981561;28;20643;-83
2021/07/02 11:34:15;;;;;;;12.33;4.97;;;24.50;99.90;;;;;;4999288;28;20393;-84
2021/07/02 11:37:14;;;;;;;6.27;4.60;;;24.30;94.90;;;;;;4981550;28;20470;-82
2021/07/02 11:39:48;;;;;;;5.90;4.27;;;24.20;99.90;;;;;;4998959;28;20959;-83
2021/07/02 11:42:17;;;;;;;5.03;4.53;;;24.20;99.90;;;;;;4997003;28;20426;-83
2021/07/02 11:44:48;;;;;;;5.80;5.30;;;24.40;99.90;;;;;;4979741;28;20945;-81
2021/07/02 11:47:16;;;;;;;5.10;4.57;;;24.40;99.90;;;;;;4997754;28;20461;-83
2021/07/02 11:49:51;;;;;;;5.70;4.90;;;24.20;1.00;;;;;;4979259;28;20438;-83
2021/07/02 11:52:21;;;;;;;5.90;5.40;;;23.90;1.00;;;;;;4980933;28;20429;-83
2021/07/02 11:54:54;;;;;;;5.60;5.00;;;24.10;1.00;;;;;;4981866;28;20434;-84
2021/07/02 11:57:24;;;;;;;7.93;5.87;;;24.40;1.00;;;;;;4981737;28;20478;-83
2021/07/02 12:00:05;;;;;;;6.70;5.23;;;24.70;1.00;;;;;;4984352;28;20440;-81
2021/07/02 12:02:47;;;;;;;5.23;4.73;;;24.80;1.00;;;;;;5019136;28;21248;-81
2021/07/02 12:05:16;;;;;;;5.67;5.07;;;24.60;1.00;;;;;;5002045;28;20513;-81
2021/07/02 12:07:48;;;;;;;6.60;5.90;;;24.50;1.00;;;;;;5002162;28;20509;-80
2021/07/02 12:10:18;;;;;;;4.97;4.57;;;24.70;1.00;;;;;;5018902;28;20402;-82
2021/07/02 12:12:46;;;;;;;4.80;4.40;;;24.80;1.00;;;;;;5018937;28;20453;-79
2021/07/02 12:15:24;;;;;;;6.83;5.10;;;25.10;59.00;;;;;;5001410;28;20433;-80
2021/07/02 12:18:05;;;;;;;5.87;5.27;;;25.10;1.00;;;;;;5002094;28;20489;-79
2021/07/02 12:20:33;;;;;;;5.40;4.90;;;25.10;99.90;;;;;;5018773;28;20473;-77
2021/07/02 12:23:05;;;;;;;7.10;5.53;;;25.10;1.00;;;;;;5002125;28;20445;-79
2021/07/02 12:26:14;;;;;;;5.13;4.30;;;25.20;99.90;;;;;;5001679;28;20444;-79
2021/07/02 12:28:57;;;;;;;5.77;4.90;;;25.40;99.90;;;;;;5017738;28;20497;-81
2021/07/02 12:31:27;;;;;;;5.70;4.30;;;25.20;99.90;;;;;;5001351;28;20509;-80
2021/07/02 12:33:56;;;;;;;4.80;4.40;;;25.10;99.90;;;;;;5014341;28;20449;-84
2021/07/02 12:36:24;;;;;;;5.83;3.97;;;25.40;1.00;;;;;;4981264;28;20458;-82
2021/07/02 12:39:00;;;;;;;5.73;5.00;;;25.20;1.00;;;;;;5006765;28;20488;-84
2021/07/02 12:41:37;;;;;;;4.97;4.50;;;25.10;1.00;;;;;;5006593;28;20406;-83
2021/07/02 12:44:06;;;;;;;5.13;4.60;;;25.30;99.90;;;;;;5018741;28;20448;-84
2021/07/02 12:46:35;;;;;;;5.00;4.17;;;24.90;1.00;;;;;;5017369;28;20461;-81
2021/07/02 12:49:31;;;;;;;5.97;4.97;;;24.40;99.90;;;;;;5015747;28;20449;-80
2021/07/02 12:54:55;;;;;;;5.70;4.90;;;23.70;99.90;;;;;;4991145;28;20422;-84
2021/07/02 12:57:27;;;;;;;4.43;4.13;;;23.60;99.90;;;;;;5003588;28;20473;-84
2021/07/02 12:59:57;;;;;;;4.20;3.80;;;23.80;99.90;;;;;;5002802;28;20435;-83
2021/07/02 13:02:28;;;;;;;5.03;4.53;;;23.80;99.90;;;;;;5002685;28;20441;-84
2021/07/02 13:04:58;;;;;;;7.80;4.00;;;23.80;99.90;;;;;;5001763;28;20447;-83
2021/07/02 13:07:26;;;;;;;6.37;4.20;;;23.90;99.90;;;;;;5002957;28;20465;-84